sensor_id;sensor_type;location;lat;lon;timestamp;P1;durP1;ratioP1;P2;durP2;ratioP2
27985;SDS011;15453;53.692;10.168;2023-04-03T00:01:05;7.03;;;3.13;;
27985;SDS011;15453;53.692;10.168;2023-04-03T00:03:30;5.78;;;2.30;;
27985;SDS011;15453;53.692;10.168;2023-04-03T00:05:55;4.75;;;1.70;;
27985;SDS011;15453;53.692;10.168;2023-04-03T00:08:21;5.50;;;1.90;;
27985;SDS011;15453;53.692;10.168;2023-04-03T00:10:47;6.55;;;1.63;;
27985;SDS011;15453;53.692;10.168;2023-04-03T00:13:12;5.47;;;1.70;;
27985;SDS011;15453;53.692;10.168;2023-04-03T00:15:38;5.50;;;1.40;;
27985;SDS011;15453;53.692;10.168;2023-04-03T00:18:04;5.28;;;1.83;;
27985;SDS011;15453;53.692;10.168;2023-04-03T00:20:30;3.67;;;1.50;;
27985;SDS011;15453;53.692;10.168;2023-04-03T00:22:57;8.18;;;1.67;;
27985;SDS011;15453;53.692;10.168;2023-04-03T00:25:22;6.38;;;1.75;;
27985;SDS011;15453;53.692;10.168;2023-04-03T00:27:47;4.93;;;2.28;;
27985;SDS011;15453;53.692;10.168;2023-04-03T00:30:14;6.82;;;2.53;;
27985;SDS011;15453;53.692;10.168;2023-04-03T00:32:41;8.73;;;2.90;;
27985;SDS011;15453;53.692;10.168;2023-04-03T00:35:06;6.03;;;2.65;;
27985;SDS011;15453;53.692;10.168;2023-04-03T00:37:32;9.63;;;2.42;;
27985;SDS011;15453;53.692;10.168;2023-04-03T00:39:57;8.90;;;2.90;;
27985;SDS011;15453;53.692;10.168;2023-04-03T00:42:23;9.02;;;2.17;;
27985;SDS011;15453;53.692;10.168;2023-04-03T00:47:20;6.85;;;2.00;;
27985;SDS011;15453;53.692;10.168;2023-04-03T00:49:46;7.97;;;1.88;;
27985;SDS011;15453;53.692;10.168;2023-04-03T00:52:13;3.22;;;1.40;;
27985;SDS011;15453;53.692;10.168;2023-04-03T00:54:40;6.05;;;1.58;;
27985;SDS011;15453;53.692;10.168;2023-04-03T00:57:07;3.42;;;1.40;;
27985;SDS011;15453;53.692;10.168;2023-04-03T00:59:34;6.30;;;1.58;;
27985;SDS011;15453;53.692;10.168;2023-04-03T01:02:03;5.28;;;1.77;;
27985;SDS011;15453;53.692;10.168;2023-04-03T01:06:58;4.97;;;1.80;;
27985;SDS011;15453;53.692;10.168;2023-04-03T01:09:26;2.35;;;1.23;;
27985;SDS011;15453;53.692;10.168;2023-04-03T01:11:53;6.05;;;1.73;;
27985;SDS011;15453;53.692;10.168;2023-04-03T01:14:18;5.38;;;1.17;;
27985;SDS011;15453;53.692;10.168;2023-04-03T01:16:51;7.72;;;1.60;;
27985;SDS011;15453;53.692;10.168;2023-04-03T01:19:17;4.35;;;1.70;;
27985;SDS011;15453;53.692;10.168;2023-04-03T01:24:43;5.07;;;1.65;;
27985;SDS011;15453;53.692;10.168;2023-04-03T01:27:09;4.03;;;1.48;;
27985;SDS011;15453;53.692;10.168;2023-04-03T01:29:35;7.57;;;2.13;;
27985;SDS011;15453;53.692;10.168;2023-04-03T01:32:01;5.20;;;1.60;;
27985;SDS011;15453;53.692;10.168;2023-04-03T01:34:29;3.75;;;1.30;;
27985;SDS011;15453;53.692;10.168;2023-04-03T01:36:55;5.18;;;1.85;;
27985;SDS011;15453;53.692;10.168;2023-04-03T01:39:20;3.70;;;1.58;;
27985;SDS011;15453;53.692;10.168;2023-04-03T01:41:46;7.90;;;1.88;;
27985;SDS011;15453;53.692;10.168;2023-04-03T01:44:12;4.40;;;1.92;;
27985;SDS011;15453;53.692;10.168;2023-04-03T01:46:37;11.07;;;1.98;;
27985;SDS011;15453;53.692;10.168;2023-04-03T01:49:03;6.90;;;1.73;;
27985;SDS011;15453;53.692;10.168;2023-04-03T01:51:29;5.40;;;1.73;;
27985;SDS011;15453;53.692;10.168;2023-04-03T01:53:54;3.45;;;1.60;;
27985;SDS011;15453;53.692;10.168;2023-04-03T01:56:19;5.32;;;2.00;;
27985;SDS011;15453;53.692;10.168;2023-04-03T01:58:45;6.28;;;1.70;;
27985;SDS011;15453;53.692;10.168;2023-04-03T02:01:10;7.45;;;1.83;;
27985;SDS011;15453;53.692;10.168;2023-04-03T02:03:35;5.35;;;1.55;;
27985;SDS011;15453;53.692;10.168;2023-04-03T02:06:01;6.43;;;1.63;;
27985;SDS011;15453;53.692;10.168;2023-04-03T02:08:26;5.32;;;1.52;;
27985;SDS011;15453;53.692;10.168;2023-04-03T02:10:51;5.50;;;1.77;;
27985;SDS011;15453;53.692;10.168;2023-04-03T02:13:17;4.97;;;1.70;;
27985;SDS011;15453;53.692;10.168;2023-04-03T02:15:43;4.65;;;1.63;;
27985;SDS011;15453;53.692;10.168;2023-04-03T02:18:08;5.00;;;1.58;;
27985;SDS011;15453;53.692;10.168;2023-04-03T02:20:34;4.97;;;1.45;;
27985;SDS011;15453;53.692;10.168;2023-04-03T02:22:59;3.72;;;1.40;;
27985;SDS011;15453;53.692;10.168;2023-04-03T02:25:25;4.40;;;1.63;;
27985;SDS011;15453;53.692;10.168;2023-04-03T02:27:50;4.85;;;1.58;;
27985;SDS011;15453;53.692;10.168;2023-04-03T02:30:16;3.85;;;1.40;;
27985;SDS011;15453;53.692;10.168;2023-04-03T02:32:41;5.68;;;1.50;;
27985;SDS011;15453;53.692;10.168;2023-04-03T02:35:08;4.82;;;1.45;;
27985;SDS011;15453;53.692;10.168;2023-04-03T02:37:34;4.25;;;1.45;;
27985;SDS011;15453;53.692;10.168;2023-04-03T02:39:59;8.52;;;1.80;;
27985;SDS011;15453;53.692;10.168;2023-04-03T02:42:25;4.68;;;1.75;;
27985;SDS011;15453;53.692;10.168;2023-04-03T02:44:50;4.43;;;1.50;;
27985;SDS011;15453;53.692;10.168;2023-04-03T02:47:15;5.22;;;1.42;;
27985;SDS011;15453;53.692;10.168;2023-04-03T02:49:41;8.20;;;2.38;;
27985;SDS011;15453;53.692;10.168;2023-04-03T02:52:08;5.97;;;2.22;;
27985;SDS011;15453;53.692;10.168;2023-04-03T02:54:33;4.55;;;1.60;;
27985;SDS011;15453;53.692;10.168;2023-04-03T02:56:59;4.13;;;1.67;;
27985;SDS011;15453;53.692;10.168;2023-04-03T02:59:24;4.93;;;1.63;;
27985;SDS011;15453;53.692;10.168;2023-04-03T03:01:49;6.38;;;1.50;;
27985;SDS011;15453;53.692;10.168;2023-04-03T03:04:15;2.83;;;1.48;;
27985;SDS011;15453;53.692;10.168;2023-04-03T03:06:40;4.07;;;1.42;;
27985;SDS011;15453;53.692;10.168;2023-04-03T03:09:06;4.55;;;1.38;;
27985;SDS011;15453;53.692;10.168;2023-04-03T03:11:31;6.28;;;1.67;;
27985;SDS011;15453;53.692;10.168;2023-04-03T03:13:56;5.45;;;2.10;;
27985;SDS011;15453;53.692;10.168;2023-04-03T03:16:22;6.85;;;1.75;;
27985;SDS011;15453;53.692;10.168;2023-04-03T03:18:47;6.22;;;1.63;;
27985;SDS011;15453;53.692;10.168;2023-04-03T03:21:12;9.57;;;1.73;;
27985;SDS011;15453;53.692;10.168;2023-04-03T03:23:37;4.15;;;1.80;;
27985;SDS011;15453;53.692;10.168;2023-04-03T03:26:04;6.00;;;1.63;;
27985;SDS011;15453;53.692;10.168;2023-04-03T03:28:32;6.50;;;1.88;;
27985;SDS011;15453;53.692;10.168;2023-04-03T03:30:58;5.53;;;1.77;;
27985;SDS011;15453;53.692;10.168;2023-04-03T03:33:24;8.13;;;1.77;;
27985;SDS011;15453;53.692;10.168;2023-04-03T03:35:51;4.47;;;1.75;;
27985;SDS011;15453;53.692;10.168;2023-04-03T03:38:17;6.28;;;1.90;;
27985;SDS011;15453;53.692;10.168;2023-04-03T03:40:42;6.18;;;1.80;;
27985;SDS011;15453;53.692;10.168;2023-04-03T03:43:07;4.10;;;1.95;;
27985;SDS011;15453;53.692;10.168;2023-04-03T03:45:33;4.22;;;1.58;;
27985;SDS011;15453;53.692;10.168;2023-04-03T03:47:58;4.22;;;1.52;;
27985;SDS011;15453;53.692;10.168;2023-04-03T03:50:23;3.63;;;1.50;;
27985;SDS011;15453;53.692;10.168;2023-04-03T03:52:49;3.25;;;1.48;;
27985;SDS011;15453;53.692;10.168;2023-04-03T03:55:14;5.85;;;1.90;;
27985;SDS011;15453;53.692;10.168;2023-04-03T03:57:40;5.85;;;1.90;;
27985;SDS011;15453;53.692;10.168;2023-04-03T04:00:05;5.18;;;1.98;;
27985;SDS011;15453;53.692;10.168;2023-04-03T04:02:32;2.88;;;1.30;;
27985;SDS011;15453;53.692;10.168;2023-04-03T04:04:57;5.22;;;1.90;;
27985;SDS011;15453;53.692;10.168;2023-04-03T04:07:23;3.72;;;1.67;;
27985;SDS011;15453;53.692;10.168;2023-04-03T04:09:48;5.30;;;2.08;;
27985;SDS011;15453;53.692;10.168;2023-04-03T04:12:13;5.78;;;2.05;;
27985;SDS011;15453;53.692;10.168;2023-04-03T04:14:39;8.68;;;2.03;;
27985;SDS011;15453;53.692;10.168;2023-04-03T04:17:05;6.68;;;2.13;;
27985;SDS011;15453;53.692;10.168;2023-04-03T04:19:30;3.28;;;1.67;;
27985;SDS011;15453;53.692;10.168;2023-04-03T04:21:55;3.70;;;1.63;;
27985;SDS011;15453;53.692;10.168;2023-04-03T04:24:20;4.75;;;1.80;;
27985;SDS011;15453;53.692;10.168;2023-04-03T04:26:47;5.82;;;1.98;;
27985;SDS011;15453;53.692;10.168;2023-04-03T04:29:13;7.47;;;2.15;;
27985;SDS011;15453;53.692;10.168;2023-04-03T04:31:38;4.25;;;2.13;;
27985;SDS011;15453;53.692;10.168;2023-04-03T04:34:03;5.18;;;2.17;;
27985;SDS011;15453;53.692;10.168;2023-04-03T04:36:29;6.03;;;2.10;;
27985;SDS011;15453;53.692;10.168;2023-04-03T04:38:54;6.32;;;2.25;;
27985;SDS011;15453;53.692;10.168;2023-04-03T04:41:20;5.65;;;2.17;;
27985;SDS011;15453;53.692;10.168;2023-04-03T04:43:47;6.10;;;2.35;;
27985;SDS011;15453;53.692;10.168;2023-04-03T04:46:13;6.97;;;1.92;;
27985;SDS011;15453;53.692;10.168;2023-04-03T04:48:38;5.85;;;2.22;;
27985;SDS011;15453;53.692;10.168;2023-04-03T04:51:04;5.38;;;1.83;;
27985;SDS011;15453;53.692;10.168;2023-04-03T04:53:29;7.68;;;1.98;;
27985;SDS011;15453;53.692;10.168;2023-04-03T04:55:55;3.83;;;1.95;;
27985;SDS011;15453;53.692;10.168;2023-04-03T04:58:20;6.20;;;2.83;;
27985;SDS011;15453;53.692;10.168;2023-04-03T05:00:45;5.50;;;2.13;;
27985;SDS011;15453;53.692;10.168;2023-04-03T05:03:11;6.35;;;2.22;;
27985;SDS011;15453;53.692;10.168;2023-04-03T05:05:36;7.07;;;2.72;;
27985;SDS011;15453;53.692;10.168;2023-04-03T05:08:02;6.97;;;2.50;;
27985;SDS011;15453;53.692;10.168;2023-04-03T05:10:28;8.25;;;2.10;;
27985;SDS011;15453;53.692;10.168;2023-04-03T05:12:54;5.95;;;2.05;;
27985;SDS011;15453;53.692;10.168;2023-04-03T05:15:19;6.25;;;2.72;;
27985;SDS011;15453;53.692;10.168;2023-04-03T05:17:44;8.27;;;2.92;;
27985;SDS011;15453;53.692;10.168;2023-04-03T05:20:10;15.80;;;2.85;;
27985;SDS011;15453;53.692;10.168;2023-04-03T05:22:36;5.22;;;2.20;;
27985;SDS011;15453;53.692;10.168;2023-04-03T05:25:01;6.97;;;2.45;;
27985;SDS011;15453;53.692;10.168;2023-04-03T05:27:26;11.75;;;3.63;;
27985;SDS011;15453;53.692;10.168;2023-04-03T05:29:53;8.48;;;2.45;;
27985;SDS011;15453;53.692;10.168;2023-04-03T05:32:19;5.45;;;2.67;;
27985;SDS011;15453;53.692;10.168;2023-04-03T05:34:45;11.00;;;2.63;;
27985;SDS011;15453;53.692;10.168;2023-04-03T05:37:10;6.93;;;2.47;;
27985;SDS011;15453;53.692;10.168;2023-04-03T05:39:35;6.70;;;2.65;;
27985;SDS011;15453;53.692;10.168;2023-04-03T05:42:01;7.57;;;2.38;;
27985;SDS011;15453;53.692;10.168;2023-04-03T05:44:26;7.78;;;2.28;;
27985;SDS011;15453;53.692;10.168;2023-04-03T05:46:51;8.07;;;2.03;;
27985;SDS011;15453;53.692;10.168;2023-04-03T05:49:17;9.82;;;3.00;;
27985;SDS011;15453;53.692;10.168;2023-04-03T05:51:42;6.82;;;2.47;;
27985;SDS011;15453;53.692;10.168;2023-04-03T05:54:12;5.40;;;2.40;;
27985;SDS011;15453;53.692;10.168;2023-04-03T05:56:43;7.63;;;2.50;;
27985;SDS011;15453;53.692;10.168;2023-04-03T05:59:08;5.78;;;2.38;;
27985;SDS011;15453;53.692;10.168;2023-04-03T06:01:34;5.82;;;2.15;;
27985;SDS011;15453;53.692;10.168;2023-04-03T06:03:59;6.90;;;2.22;;
27985;SDS011;15453;53.692;10.168;2023-04-03T06:06:25;7.70;;;2.38;;
27985;SDS011;15453;53.692;10.168;2023-04-03T06:08:50;7.38;;;2.60;;
27985;SDS011;15453;53.692;10.168;2023-04-03T06:11:16;4.38;;;2.20;;
27985;SDS011;15453;53.692;10.168;2023-04-03T06:13:41;5.35;;;1.98;;
27985;SDS011;15453;53.692;10.168;2023-04-03T06:16:08;5.95;;;2.13;;
27985;SDS011;15453;53.692;10.168;2023-04-03T06:18:36;5.60;;;1.95;;
27985;SDS011;15453;53.692;10.168;2023-04-03T06:21:02;5.95;;;2.25;;
27985;SDS011;15453;53.692;10.168;2023-04-03T06:23:28;5.63;;;1.88;;
27985;SDS011;15453;53.692;10.168;2023-04-03T06:25:53;5.07;;;2.00;;
27985;SDS011;15453;53.692;10.168;2023-04-03T06:28:19;6.20;;;2.38;;
27985;SDS011;15453;53.692;10.168;2023-04-03T06:30:44;8.63;;;2.75;;
27985;SDS011;15453;53.692;10.168;2023-04-03T06:33:10;6.00;;;2.35;;
27985;SDS011;15453;53.692;10.168;2023-04-03T06:35:35;5.95;;;2.38;;
27985;SDS011;15453;53.692;10.168;2023-04-03T06:38:01;4.85;;;1.98;;
27985;SDS011;15453;53.692;10.168;2023-04-03T06:40:29;5.45;;;2.47;;
27985;SDS011;15453;53.692;10.168;2023-04-03T06:42:54;4.38;;;1.90;;
27985;SDS011;15453;53.692;10.168;2023-04-03T06:45:19;6.38;;;2.35;;
27985;SDS011;15453;53.692;10.168;2023-04-03T06:47:46;4.70;;;1.60;;
27985;SDS011;15453;53.692;10.168;2023-04-03T06:50:11;5.45;;;2.05;;
27985;SDS011;15453;53.692;10.168;2023-04-03T06:52:39;4.75;;;1.80;;
27985;SDS011;15453;53.692;10.168;2023-04-03T06:55:04;5.65;;;2.50;;
27985;SDS011;15453;53.692;10.168;2023-04-03T06:57:30;6.28;;;2.33;;
27985;SDS011;15453;53.692;10.168;2023-04-03T06:59:55;3.60;;;1.88;;
27985;SDS011;15453;53.692;10.168;2023-04-03T07:02:20;5.78;;;2.42;;
27985;SDS011;15453;53.692;10.168;2023-04-03T07:04:46;6.85;;;2.30;;
27985;SDS011;15453;53.692;10.168;2023-04-03T07:07:11;4.63;;;2.08;;
27985;SDS011;15453;53.692;10.168;2023-04-03T07:09:37;3.38;;;1.50;;
27985;SDS011;15453;53.692;10.168;2023-04-03T07:12:02;4.55;;;1.73;;
27985;SDS011;15453;53.692;10.168;2023-04-03T07:14:27;7.82;;;1.98;;
27985;SDS011;15453;53.692;10.168;2023-04-03T07:16:53;7.28;;;2.00;;
27985;SDS011;15453;53.692;10.168;2023-04-03T07:19:18;6.45;;;2.05;;
27985;SDS011;15453;53.692;10.168;2023-04-03T07:21:43;6.57;;;2.10;;
27985;SDS011;15453;53.692;10.168;2023-04-03T07:24:09;6.25;;;1.60;;
27985;SDS011;15453;53.692;10.168;2023-04-03T07:26:35;5.30;;;1.80;;
27985;SDS011;15453;53.692;10.168;2023-04-03T07:29:01;4.25;;;1.73;;
27985;SDS011;15453;53.692;10.168;2023-04-03T07:31:26;6.13;;;2.17;;
27985;SDS011;15453;53.692;10.168;2023-04-03T07:33:51;5.45;;;1.70;;
27985;SDS011;15453;53.692;10.168;2023-04-03T07:36:18;6.28;;;1.80;;
27985;SDS011;15453;53.692;10.168;2023-04-03T07:38:44;5.10;;;1.77;;
27985;SDS011;15453;53.692;10.168;2023-04-03T07:41:14;4.55;;;1.50;;
27985;SDS011;15453;53.692;10.168;2023-04-03T07:43:40;5.82;;;1.73;;
27985;SDS011;15453;53.692;10.168;2023-04-03T07:46:06;5.97;;;1.60;;
27985;SDS011;15453;53.692;10.168;2023-04-03T07:48:31;9.43;;;2.15;;
27985;SDS011;15453;53.692;10.168;2023-04-03T07:51:00;5.63;;;1.42;;
27985;SDS011;15453;53.692;10.168;2023-04-03T07:53:26;5.47;;;1.50;;
27985;SDS011;15453;53.692;10.168;2023-04-03T07:55:52;3.17;;;1.13;;
27985;SDS011;15453;53.692;10.168;2023-04-03T07:58:20;4.18;;;1.20;;
27985;SDS011;15453;53.692;10.168;2023-04-03T08:00:46;4.13;;;1.55;;
27985;SDS011;15453;53.692;10.168;2023-04-03T08:03:12;9.40;;;2.33;;
27985;SDS011;15453;53.692;10.168;2023-04-03T08:05:39;4.78;;;1.35;;
27985;SDS011;15453;53.692;10.168;2023-04-03T08:08:06;5.85;;;1.92;;
27985;SDS011;15453;53.692;10.168;2023-04-03T08:10:32;4.97;;;1.38;;
27985;SDS011;15453;53.692;10.168;2023-04-03T08:12:58;4.65;;;1.60;;
27985;SDS011;15453;53.692;10.168;2023-04-03T08:15:23;5.70;;;1.70;;
27985;SDS011;15453;53.692;10.168;2023-04-03T08:17:48;4.55;;;1.33;;
27985;SDS011;15453;53.692;10.168;2023-04-03T08:20:14;7.70;;;1.67;;
27985;SDS011;15453;53.692;10.168;2023-04-03T08:22:39;6.50;;;1.65;;
27985;SDS011;15453;53.692;10.168;2023-04-03T08:25:05;5.65;;;2.00;;
27985;SDS011;15453;53.692;10.168;2023-04-03T08:27:31;4.25;;;1.25;;
27985;SDS011;15453;53.692;10.168;2023-04-03T08:29:56;4.38;;;1.50;;
27985;SDS011;15453;53.692;10.168;2023-04-03T08:32:21;3.83;;;1.35;;
27985;SDS011;15453;53.692;10.168;2023-04-03T08:34:47;3.30;;;1.42;;
27985;SDS011;15453;53.692;10.168;2023-04-03T08:37:13;8.30;;;1.40;;
27985;SDS011;15453;53.692;10.168;2023-04-03T08:39:38;3.55;;;1.30;;
27985;SDS011;15453;53.692;10.168;2023-04-03T08:42:05;2.47;;;1.00;;
27985;SDS011;15453;53.692;10.168;2023-04-03T08:44:47;4.90;;;1.50;;
27985;SDS011;15453;53.692;10.168;2023-04-03T08:47:25;4.80;;;1.02;;
27985;SDS011;15453;53.692;10.168;2023-04-03T08:52:31;3.88;;;1.15;;
27985;SDS011;15453;53.692;10.168;2023-04-03T08:55:01;3.17;;;1.00;;
27985;SDS011;15453;53.692;10.168;2023-04-03T08:57:47;4.63;;;1.20;;
27985;SDS011;15453;53.692;10.168;2023-04-03T09:02:52;4.20;;;1.40;;
27985;SDS011;15453;53.692;10.168;2023-04-03T09:05:20;4.60;;;1.20;;
27985;SDS011;15453;53.692;10.168;2023-04-03T09:10:27;2.47;;;1.00;;
27985;SDS011;15453;53.692;10.168;2023-04-03T09:13:39;3.85;;;1.00;;
27985;SDS011;15453;53.692;10.168;2023-04-03T09:15:53;3.33;;;1.10;;
27985;SDS011;15453;53.692;10.168;2023-04-03T09:18:20;2.47;;;1.00;;
27985;SDS011;15453;53.692;10.168;2023-04-03T09:23:54;2.25;;;0.90;;
27985;SDS011;15453;53.692;10.168;2023-04-03T09:26:26;4.15;;;1.05;;
27985;SDS011;15453;53.692;10.168;2023-04-03T09:28:56;4.65;;;1.23;;
27985;SDS011;15453;53.692;10.168;2023-04-03T09:31:25;5.30;;;1.17;;
27985;SDS011;15453;53.692;10.168;2023-04-03T09:33:55;3.58;;;0.85;;
27985;SDS011;15453;53.692;10.168;2023-04-03T09:36:41;3.88;;;1.00;;
27985;SDS011;15453;53.692;10.168;2023-04-03T09:39:14;3.50;;;0.90;;
27985;SDS011;15453;53.692;10.168;2023-04-03T09:41:42;5.85;;;1.30;;
27985;SDS011;15453;53.692;10.168;2023-04-03T09:44:20;4.78;;;0.93;;
27985;SDS011;15453;53.692;10.168;2023-04-03T09:46:47;2.20;;;0.80;;
27985;SDS011;15453;53.692;10.168;2023-04-03T09:49:12;4.25;;;1.10;;
27985;SDS011;15453;53.692;10.168;2023-04-03T09:51:38;3.90;;;1.33;;
27985;SDS011;15453;53.692;10.168;2023-04-03T09:57:01;4.63;;;1.50;;
27985;SDS011;15453;53.692;10.168;2023-04-03T09:59:31;2.55;;;1.10;;
27985;SDS011;15453;53.692;10.168;2023-04-03T10:02:02;2.55;;;1.00;;
27985;SDS011;15453;53.692;10.168;2023-04-03T10:04:38;2.00;;;0.70;;
27985;SDS011;15453;53.692;10.168;2023-04-03T10:07:28;2.50;;;1.00;;
27985;SDS011;15453;53.692;10.168;2023-04-03T10:10:15;3.40;;;1.17;;
27985;SDS011;15453;53.692;10.168;2023-04-03T10:12:42;4.45;;;1.00;;
27985;SDS011;15453;53.692;10.168;2023-04-03T10:15:11;4.05;;;1.20;;
27985;SDS011;15453;53.692;10.168;2023-04-03T10:23:05;2.72;;;1.30;;
27985;SDS011;15453;53.692;10.168;2023-04-03T10:28:50;2.78;;;1.13;;
27985;SDS011;15453;53.692;10.168;2023-04-03T10:31:50;3.65;;;1.25;;
27985;SDS011;15453;53.692;10.168;2023-04-03T10:34:25;4.05;;;1.35;;
27985;SDS011;15453;53.692;10.168;2023-04-03T10:53:37;2.50;;;1.20;;
27985;SDS011;15453;53.692;10.168;2023-04-03T10:56:21;2.40;;;1.08;;
27985;SDS011;15453;53.692;10.168;2023-04-03T10:59:02;3.08;;;1.20;;
27985;SDS011;15453;53.692;10.168;2023-04-03T11:01:38;4.35;;;1.40;;
27985;SDS011;15453;53.692;10.168;2023-04-03T11:04:07;2.95;;;1.15;;
27985;SDS011;15453;53.692;10.168;2023-04-03T11:06:36;3.60;;;1.10;;
27985;SDS011;15453;53.692;10.168;2023-04-03T11:09:07;3.17;;;1.25;;
27985;SDS011;15453;53.692;10.168;2023-04-03T11:11:43;2.60;;;0.90;;
27985;SDS011;15453;53.692;10.168;2023-04-03T11:19:42;2.85;;;1.00;;
27985;SDS011;15453;53.692;10.168;2023-04-03T11:22:30;2.42;;;1.00;;
27985;SDS011;15453;53.692;10.168;2023-04-03T11:25:04;3.03;;;1.10;;
27985;SDS011;15453;53.692;10.168;2023-04-03T11:27:41;3.42;;;1.02;;
27985;SDS011;15453;53.692;10.168;2023-04-03T11:30:39;6.53;;;1.23;;
27985;SDS011;15453;53.692;10.168;2023-04-03T11:35:44;3.40;;;1.17;;
27985;SDS011;15453;53.692;10.168;2023-04-03T11:38:23;5.45;;;1.50;;
27985;SDS011;15453;53.692;10.168;2023-04-03T11:40:54;3.67;;;1.05;;
27985;SDS011;15453;53.692;10.168;2023-04-03T11:43:21;3.22;;;0.88;;
27985;SDS011;15453;53.692;10.168;2023-04-03T11:46:11;3.33;;;0.88;;
27985;SDS011;15453;53.692;10.168;2023-04-03T11:51:46;2.57;;;0.83;;
27985;SDS011;15453;53.692;10.168;2023-04-03T11:53:52;4.10;;;1.00;;
27985;SDS011;15453;53.692;10.168;2023-04-03T12:04:15;3.92;;;1.00;;
27985;SDS011;15453;53.692;10.168;2023-04-03T12:06:48;3.53;;;1.08;;
27985;SDS011;15453;53.692;10.168;2023-04-03T12:09:33;3.55;;;1.10;;
27985;SDS011;15453;53.692;10.168;2023-04-03T12:12:01;4.05;;;1.52;;
27985;SDS011;15453;53.692;10.168;2023-04-03T12:14:47;4.20;;;1.45;;
27985;SDS011;15453;53.692;10.168;2023-04-03T12:17:19;2.33;;;0.88;;
27985;SDS011;15453;53.692;10.168;2023-04-03T12:19:48;2.20;;;1.25;;
27985;SDS011;15453;53.692;10.168;2023-04-03T12:22:14;1.83;;;0.90;;
27985;SDS011;15453;53.692;10.168;2023-04-03T12:24:42;4.05;;;1.15;;
27985;SDS011;15453;53.692;10.168;2023-04-03T12:32:43;3.25;;;0.82;;
27985;SDS011;15453;53.692;10.168;2023-04-03T12:35:24;3.58;;;1.08;;
27985;SDS011;15453;53.692;10.168;2023-04-03T12:43:17;2.67;;;1.10;;
27985;SDS011;15453;53.692;10.168;2023-04-03T12:45:59;2.92;;;0.82;;
27985;SDS011;15453;53.692;10.168;2023-04-03T12:48:29;3.35;;;0.90;;
27985;SDS011;15453;53.692;10.168;2023-04-03T12:50:57;5.80;;;0.90;;
27985;SDS011;15453;53.692;10.168;2023-04-03T12:53:33;3.25;;;1.20;;
27985;SDS011;15453;53.692;10.168;2023-04-03T12:56:20;4.93;;;1.35;;
27985;SDS011;15453;53.692;10.168;2023-04-03T12:58:56;3.08;;;1.10;;
27985;SDS011;15453;53.692;10.168;2023-04-03T13:01:54;3.50;;;0.98;;
27985;SDS011;15453;53.692;10.168;2023-04-03T13:04:24;2.55;;;1.02;;
27985;SDS011;15453;53.692;10.168;2023-04-03T13:06:51;2.08;;;0.70;;
27985;SDS011;15453;53.692;10.168;2023-04-03T13:09:30;1.88;;;1.00;;
27985;SDS011;15453;53.692;10.168;2023-04-03T13:11:57;4.10;;;1.20;;
27985;SDS011;15453;53.692;10.168;2023-04-03T13:14:26;2.47;;;0.95;;
27985;SDS011;15453;53.692;10.168;2023-04-03T13:17:04;2.00;;;0.80;;
27985;SDS011;15453;53.692;10.168;2023-04-03T13:19:36;3.25;;;0.88;;
27985;SDS011;15453;53.692;10.168;2023-04-03T13:22:03;3.65;;;1.08;;
27985;SDS011;15453;53.692;10.168;2023-04-03T13:24:33;3.08;;;1.35;;
27985;SDS011;15453;53.692;10.168;2023-04-03T13:27:03;2.95;;;1.15;;
27985;SDS011;15453;53.692;10.168;2023-04-03T13:29:36;3.67;;;1.20;;
27985;SDS011;15453;53.692;10.168;2023-04-03T13:32:03;4.18;;;1.30;;
27985;SDS011;15453;53.692;10.168;2023-04-03T13:34:35;2.75;;;1.00;;
27985;SDS011;15453;53.692;10.168;2023-04-03T13:37:24;3.92;;;1.15;;
27985;SDS011;15453;53.692;10.168;2023-04-03T13:39:58;2.70;;;0.90;;
27985;SDS011;15453;53.692;10.168;2023-04-03T13:42:33;4.53;;;1.33;;
27985;SDS011;15453;53.692;10.168;2023-04-03T13:45:16;2.22;;;0.90;;
27985;SDS011;15453;53.692;10.168;2023-04-03T13:47:49;1.90;;;0.80;;
27985;SDS011;15453;53.692;10.168;2023-04-03T13:57:56;2.45;;;0.90;;
27985;SDS011;15453;53.692;10.168;2023-04-03T14:00:34;1.65;;;0.85;;
27985;SDS011;15453;53.692;10.168;2023-04-03T14:03:22;4.40;;;1.55;;
27985;SDS011;15453;53.692;10.168;2023-04-03T14:05:49;2.83;;;0.90;;
27985;SDS011;15453;53.692;10.168;2023-04-03T14:08:15;2.67;;;1.10;;
27985;SDS011;15453;53.692;10.168;2023-04-03T14:10:41;2.20;;;1.10;;
27985;SDS011;15453;53.692;10.168;2023-04-03T14:13:08;4.97;;;1.10;;
27985;SDS011;15453;53.692;10.168;2023-04-03T14:15:36;3.17;;;1.30;;
27985;SDS011;15453;53.692;10.168;2023-04-03T14:18:02;4.38;;;1.40;;
27985;SDS011;15453;53.692;10.168;2023-04-03T14:20:27;3.78;;;1.60;;
27985;SDS011;15453;53.692;10.168;2023-04-03T14:22:53;4.20;;;1.38;;
27985;SDS011;15453;53.692;10.168;2023-04-03T14:25:19;3.30;;;1.42;;
27985;SDS011;15453;53.692;10.168;2023-04-03T14:27:48;4.93;;;1.30;;
27985;SDS011;15453;53.692;10.168;2023-04-03T14:30:19;3.55;;;1.48;;
27985;SDS011;15453;53.692;10.168;2023-04-03T14:32:48;3.90;;;1.30;;
27985;SDS011;15453;53.692;10.168;2023-04-03T14:35:14;4.63;;;1.50;;
27985;SDS011;15453;53.692;10.168;2023-04-03T14:37:40;4.95;;;1.80;;
27985;SDS011;15453;53.692;10.168;2023-04-03T14:40:06;3.83;;;1.55;;
27985;SDS011;15453;53.692;10.168;2023-04-03T14:42:35;3.95;;;1.40;;
27985;SDS011;15453;53.692;10.168;2023-04-03T14:45:03;2.58;;;1.30;;
27985;SDS011;15453;53.692;10.168;2023-04-03T14:47:31;2.92;;;1.08;;
27985;SDS011;15453;53.692;10.168;2023-04-03T14:49:57;3.42;;;1.20;;
27985;SDS011;15453;53.692;10.168;2023-04-03T14:52:30;2.13;;;0.98;;
27985;SDS011;15453;53.692;10.168;2023-04-03T14:54:58;4.25;;;1.20;;
27985;SDS011;15453;53.692;10.168;2023-04-03T14:57:25;3.25;;;1.10;;
27985;SDS011;15453;53.692;10.168;2023-04-03T14:59:52;2.08;;;1.20;;
27985;SDS011;15453;53.692;10.168;2023-04-03T15:02:36;4.43;;;1.40;;
27985;SDS011;15453;53.692;10.168;2023-04-03T15:05:04;4.20;;;1.25;;
27985;SDS011;15453;53.692;10.168;2023-04-03T15:07:32;4.55;;;1.38;;
27985;SDS011;15453;53.692;10.168;2023-04-03T15:10:06;7.75;;;1.90;;
27985;SDS011;15453;53.692;10.168;2023-04-03T15:12:43;5.22;;;1.90;;
27985;SDS011;15453;53.692;10.168;2023-04-03T15:15:09;4.22;;;1.80;;
27985;SDS011;15453;53.692;10.168;2023-04-03T15:17:35;4.88;;;1.65;;
27985;SDS011;15453;53.692;10.168;2023-04-03T15:20:02;4.45;;;1.38;;
27985;SDS011;15453;53.692;10.168;2023-04-03T15:22:28;4.07;;;1.60;;
27985;SDS011;15453;53.692;10.168;2023-04-03T15:24:53;3.55;;;1.40;;
27985;SDS011;15453;53.692;10.168;2023-04-03T15:27:18;3.40;;;1.23;;
27985;SDS011;15453;53.692;10.168;2023-04-03T15:29:44;4.03;;;1.23;;
27985;SDS011;15453;53.692;10.168;2023-04-03T15:32:10;6.47;;;1.17;;
27985;SDS011;15453;53.692;10.168;2023-04-03T15:34:36;3.83;;;1.20;;
27985;SDS011;15453;53.692;10.168;2023-04-03T15:37:01;10.10;;;5.45;;
27985;SDS011;15453;53.692;10.168;2023-04-03T15:39:27;6.10;;;2.08;;
27985;SDS011;15453;53.692;10.168;2023-04-03T15:41:52;4.25;;;1.30;;
27985;SDS011;15453;53.692;10.168;2023-04-03T15:44:19;2.53;;;1.00;;
27985;SDS011;15453;53.692;10.168;2023-04-03T15:46:45;7.35;;;2.85;;
27985;SDS011;15453;53.692;10.168;2023-04-03T15:49:12;4.88;;;1.67;;
27985;SDS011;15453;53.692;10.168;2023-04-03T15:51:37;4.25;;;1.33;;
27985;SDS011;15453;53.692;10.168;2023-04-03T15:54:02;3.63;;;1.10;;
27985;SDS011;15453;53.692;10.168;2023-04-03T15:56:28;4.80;;;1.50;;
27985;SDS011;15453;53.692;10.168;2023-04-03T15:58:53;4.25;;;1.05;;
27985;SDS011;15453;53.692;10.168;2023-04-03T16:01:18;3.08;;;1.25;;
27985;SDS011;15453;53.692;10.168;2023-04-03T16:03:44;3.53;;;1.40;;